createdAt,value
2019-03-09T00:00:52.615Z,993.96
2019-03-09T00:01:52.635Z,993.98
2019-03-09T00:02:52.652Z,993.89
2019-03-09T00:03:52.672Z,993.97
2019-03-09T00:04:52.692Z,993.93
2019-03-09T00:05:52.711Z,993.95
2019-03-09T00:06:52.732Z,993.93
2019-03-09T00:07:52.752Z,993.9
2019-03-09T00:08:52.769Z,993.92
2019-03-09T00:09:52.789Z,993.97
2019-03-09T00:10:52.810Z,993.95
2019-03-09T00:11:52.827Z,993.93
2019-03-09T00:12:52.848Z,993.93
2019-03-09T00:13:52.868Z,993.88
2019-03-09T00:14:52.889Z,993.89
2019-03-09T00:15:52.907Z,993.89
2019-03-09T00:16:52.927Z,993.87
2019-03-09T00:17:52.947Z,993.84
2019-03-09T00:18:52.965Z,993.78
2019-03-09T00:19:52.986Z,993.81
2019-03-09T00:20:53.005Z,993.76
2019-03-09T00:21:53.025Z,993.73
2019-03-09T00:22:53.045Z,993.65
2019-03-09T00:23:53.064Z,993.66
2019-03-09T00:24:53.088Z,993.64
2019-03-09T00:25:53.103Z,993.57
2019-03-09T00:26:53.125Z,993.59
2019-03-09T00:27:53.142Z,993.59
2019-03-09T00:28:53.163Z,993.53
2019-03-09T00:29:53.183Z,993.54
2019-03-09T00:30:53.201Z,993.58
2019-03-09T00:31:53.220Z,993.45
2019-03-09T00:32:53.242Z,993.41
2019-03-09T00:33:53.259Z,993.4
2019-03-09T00:34:53.429Z,993.33
2019-03-09T00:35:53.299Z,993.3
2019-03-09T00:36:53.318Z,993.28
2019-03-09T00:37:53.336Z,993.22
2019-03-09T00:38:53.358Z,993.27
2019-03-09T00:39:53.376Z,993.24
2019-03-09T00:40:53.396Z,993.23
2019-03-09T00:41:53.416Z,993.21
2019-03-09T00:42:53.435Z,993.2
2019-03-09T00:43:53.457Z,993.26
2019-03-09T00:44:53.479Z,993.3
2019-03-09T00:45:53.494Z,993.2
2019-03-09T00:46:53.514Z,993.17
2019-03-09T00:47:53.534Z,993.1
2019-03-09T00:48:53.565Z,992.99
2019-03-09T00:49:53.572Z,992.97
2019-03-09T00:50:53.592Z,992.9
2019-03-09T00:51:53.612Z,992.87
2019-03-09T00:52:53.630Z,992.83
2019-03-09T00:53:53.651Z,992.81
2019-03-09T00:54:53.673Z,992.81
2019-03-09T00:55:53.690Z,992.83
2019-03-09T00:56:53.708Z,992.75
2019-03-09T00:57:53.728Z,992.79
2019-03-09T00:58:53.748Z,992.68
2019-03-09T00:59:53.766Z,992.72
2019-03-09T01:00:53.787Z,992.7
2019-03-09T01:01:53.807Z,992.74
2019-03-09T01:02:53.826Z,992.69
2019-03-09T01:03:53.865Z,992.68
2019-03-09T01:04:53.864Z,992.69
2019-03-09T01:05:53.883Z,992.64
2019-03-09T01:06:53.902Z,992.64
2019-03-09T01:07:53.922Z,992.65
2019-03-09T01:08:53.940Z,992.55
2019-03-09T01:09:53.962Z,992.57
2019-03-09T01:10:53.982Z,992.46
2019-03-09T01:11:53.999Z,992.41
2019-03-09T01:12:54.019Z,992.35
2019-03-09T01:13:54.038Z,992.32
2019-03-09T01:14:54.058Z,992.22
2019-03-09T01:15:54.077Z,992.2
2019-03-09T01:16:54.099Z,992.2
2019-03-09T01:17:54.116Z,992.18
2019-03-09T01:18:54.135Z,992.17
2019-03-09T01:19:54.156Z,992.17
2019-03-09T01:20:54.176Z,992.14
2019-03-09T01:21:54.194Z,992.2
2019-03-09T01:22:54.214Z,992.16
2019-03-09T01:23:54.233Z,992.14
2019-03-09T01:24:54.255Z,992.04
2019-03-09T01:25:54.271Z,992.14
2019-03-09T01:26:54.291Z,992
2019-03-09T01:27:54.309Z,992
2019-03-09T01:28:54.333Z,991.98
2019-03-09T01:29:54.348Z,991.97
2019-03-09T01:30:54.370Z,991.96
2019-03-09T01:31:54.388Z,991.96
2019-03-09T01:32:54.409Z,991.91
2019-03-09T01:33:54.443Z,991.83
2019-03-09T01:34:54.446Z,991.87
2019-03-09T01:35:54.465Z,991.84
2019-03-09T01:36:54.486Z,991.8
2019-03-09T01:37:54.504Z,991.8
2019-03-09T01:38:54.523Z,991.73
2019-03-09T01:39:54.540Z,991.69
2019-03-09T01:40:54.561Z,991.6
2019-03-09T01:41:54.581Z,991.7
2019-03-09T01:42:54.647Z,991.67
2019-03-09T01:43:54.622Z,991.61
2019-03-09T01:44:54.638Z,991.67
2019-03-09T01:45:54.658Z,991.57
2019-03-09T01:46:54.676Z,991.55
2019-03-09T01:47:54.696Z,991.52
2019-03-09T01:48:54.715Z,991.46
2019-03-09T01:49:54.734Z,991.42
2019-03-09T01:50:54.752Z,991.45
2019-03-09T01:51:54.774Z,991.43
2019-03-09T01:52:54.791Z,991.41
2019-03-09T01:53:54.812Z,991.34
2019-03-09T01:54:54.830Z,991.34
2019-03-09T01:55:54.851Z,991.38
2019-03-09T01:56:54.869Z,991.33
2019-03-09T01:57:54.914Z,991.35
2019-03-09T01:58:54.937Z,991.27
2019-03-09T01:59:54.925Z,991.28
2019-03-09T02:00:54.946Z,991.29
2019-03-09T02:01:54.964Z,991.16
2019-03-09T02:02:54.983Z,991.2
2019-03-09T02:03:55.004Z,991.1
2019-03-09T02:04:55.024Z,991.1
2019-03-09T02:05:55.041Z,991.05
2019-03-09T02:06:55.062Z,991.02
2019-03-09T02:07:55.078Z,990.98
2019-03-09T02:08:55.098Z,990.95
2019-03-09T02:09:55.117Z,990.97
2019-03-09T02:10:55.136Z,990.95
2019-03-09T02:11:55.156Z,991.02
2019-03-09T02:12:55.174Z,990.88
2019-03-09T02:13:55.193Z,990.87
2019-03-09T02:14:55.214Z,990.84
2019-03-09T02:15:55.233Z,990.92
2019-03-09T02:16:55.253Z,990.82
2019-03-09T02:17:55.268Z,990.8
2019-03-09T02:18:55.289Z,990.79
2019-03-09T02:19:55.308Z,990.73
2019-03-09T02:20:55.332Z,990.72
2019-03-09T02:21:55.348Z,990.68
2019-03-09T02:22:55.374Z,990.67
2019-03-09T02:23:55.382Z,990.76
2019-03-09T02:24:55.404Z,990.69
2019-03-09T02:25:55.423Z,990.69
2019-03-09T02:26:55.448Z,990.62
2019-03-09T02:27:55.462Z,990.65
2019-03-09T02:28:55.479Z,990.67
2019-03-09T02:29:55.500Z,990.67
2019-03-09T02:30:55.538Z,990.66
2019-03-09T02:31:55.538Z,990.64
2019-03-09T02:32:55.556Z,990.61
2019-03-09T02:33:55.590Z,990.58
2019-03-09T02:34:55.595Z,990.57
2019-03-09T02:35:55.616Z,990.59
2019-03-09T02:36:55.636Z,990.5
2019-03-09T02:37:55.653Z,990.53
2019-03-09T02:38:55.672Z,990.5
2019-03-09T02:39:55.695Z,990.52
2019-03-09T02:40:55.710Z,990.48
2019-03-09T02:41:55.728Z,990.49
2019-03-09T02:42:55.750Z,990.47
2019-03-09T02:43:55.770Z,990.43
2019-03-09T02:44:55.786Z,990.42
2019-03-09T02:45:55.805Z,990.36
2019-03-09T02:46:55.849Z,990.39
2019-03-09T02:47:55.847Z,990.42
2019-03-09T02:48:55.864Z,990.39
2019-03-09T02:49:55.882Z,990.39
2019-03-09T02:50:55.912Z,990.39
2019-03-09T02:51:55.922Z,990.38
2019-03-09T02:52:55.942Z,990.4
2019-03-09T02:53:55.961Z,990.33
2019-03-09T02:54:55.988Z,990.36
2019-03-09T02:55:56.004Z,990.32
2019-03-09T02:56:56.018Z,990.29
2019-03-09T02:57:56.041Z,990.25
2019-03-09T02:58:56.056Z,990.23
2019-03-09T02:59:56.075Z,990.2
2019-03-09T03:00:56.095Z,990.18
2019-03-09T03:01:56.115Z,990.21
2019-03-09T03:02:56.135Z,990.15
2019-03-09T03:03:56.152Z,990.17
2019-03-09T03:04:56.172Z,990.14
2019-03-09T03:05:56.192Z,990.14
2019-03-09T03:06:56.210Z,990.15
2019-03-09T03:07:56.228Z,990.19
2019-03-09T03:08:56.248Z,990.14
2019-03-09T03:09:56.269Z,990.18
2019-03-09T03:10:56.294Z,990.11
2019-03-09T03:11:56.310Z,990.12
2019-03-09T03:12:56.329Z,990.1
2019-03-09T03:13:56.346Z,990.06
2019-03-09T03:14:56.368Z,990.07
2019-03-09T03:15:56.383Z,990.14
2019-03-09T03:16:56.405Z,990.07
2019-03-09T03:17:56.425Z,990.02
2019-03-09T03:18:56.442Z,989.99
2019-03-09T03:19:56.462Z,989.97
2019-03-09T03:20:56.479Z,989.9
2019-03-09T03:21:56.498Z,989.97
2019-03-09T03:22:56.518Z,989.91
2019-03-09T03:23:56.540Z,989.93
2019-03-09T03:24:56.556Z,990
2019-03-09T03:25:56.575Z,989.88
2019-03-09T03:26:56.599Z,989.95
2019-03-09T03:27:56.614Z,989.92
2019-03-09T03:28:56.634Z,989.94
2019-03-09T03:29:56.652Z,989.93
2019-03-09T03:30:56.687Z,989.91
2019-03-09T03:31:56.691Z,989.87
2019-03-09T03:32:56.711Z,989.89
2019-03-09T03:33:56.728Z,989.96
2019-03-09T03:34:56.752Z,989.86
2019-03-09T03:35:56.766Z,989.88
2019-03-09T03:36:56.786Z,989.86
2019-03-09T03:37:56.803Z,989.9
2019-03-09T03:38:56.829Z,989.79
2019-03-09T03:39:56.842Z,989.77
2019-03-09T03:40:56.862Z,989.79
2019-03-09T03:41:56.890Z,989.79
2019-03-09T03:42:56.901Z,989.74
2019-03-09T03:43:56.919Z,989.78
2019-03-09T03:44:56.939Z,989.68
2019-03-09T03:45:56.955Z,989.73
2019-03-09T03:46:56.978Z,989.78
2019-03-09T03:47:56.995Z,989.75
2019-03-09T03:48:57.017Z,989.74
2019-03-09T03:49:57.033Z,989.73
2019-03-09T03:50:57.053Z,989.75
2019-03-09T03:51:57.070Z,989.8
2019-03-09T03:52:57.097Z,989.7
2019-03-09T03:53:57.181Z,989.7
2019-03-09T03:54:57.126Z,989.7
2019-03-09T03:55:57.147Z,989.7
2019-03-09T03:56:57.170Z,989.8
2019-03-09T03:57:57.183Z,989.73
2019-03-09T03:58:57.203Z,989.76
2019-03-09T03:59:57.221Z,989.72
2019-03-09T04:00:57.242Z,989.77
2019-03-09T04:01:57.260Z,989.81
2019-03-09T04:02:57.280Z,989.85
2019-03-09T04:03:57.298Z,989.84
2019-03-09T04:04:57.316Z,989.83
2019-03-09T04:05:57.335Z,989.84
2019-03-09T04:06:57.397Z,989.81
2019-03-09T04:07:57.373Z,989.7
2019-03-09T04:08:57.396Z,989.82
2019-03-09T04:09:57.411Z,989.88
2019-03-09T04:10:57.429Z,989.88
2019-03-09T04:11:57.449Z,989.84
2019-03-09T04:12:57.468Z,989.91
2019-03-09T04:13:57.503Z,989.89
2019-03-09T04:14:57.504Z,989.84
2019-03-09T04:15:57.532Z,989.87
2019-03-09T04:16:57.542Z,989.92
2019-03-09T04:17:57.560Z,989.83
2019-03-09T04:18:57.579Z,989.82
2019-03-09T04:19:57.598Z,989.81
2019-03-09T04:20:57.630Z,989.8
2019-03-09T04:21:57.636Z,989.75
2019-03-09T04:22:57.656Z,989.68
2019-03-09T04:23:57.677Z,989.72
2019-03-09T04:24:57.694Z,989.7
2019-03-09T04:25:57.713Z,989.69
2019-03-09T04:26:57.732Z,989.64
2019-03-09T04:27:57.748Z,989.63
2019-03-09T04:28:57.768Z,989.64
2019-03-09T04:29:57.787Z,989.61
2019-03-09T04:30:57.814Z,989.68
2019-03-09T04:31:57.880Z,989.64
2019-03-09T04:32:57.844Z,989.64
2019-03-09T04:33:57.862Z,989.64
2019-03-09T04:34:57.882Z,989.66
2019-03-09T04:35:57.899Z,989.69
2019-03-09T04:36:57.920Z,989.74
2019-03-09T04:37:57.943Z,989.65
2019-03-09T04:38:57.961Z,989.66
2019-03-09T04:39:57.977Z,989.66
2019-03-09T04:40:57.996Z,989.68
2019-03-09T04:41:58.043Z,989.71
2019-03-09T04:42:58.033Z,989.68
2019-03-09T04:43:58.053Z,989.65
2019-03-09T04:44:58.072Z,989.59
2019-03-09T04:45:58.090Z,989.69
2019-03-09T04:46:58.108Z,989.58
2019-03-09T04:47:58.128Z,989.66
2019-03-09T04:48:58.147Z,989.7
2019-03-09T04:49:58.191Z,989.54
2019-03-09T04:50:58.185Z,989.69
2019-03-09T04:51:58.204Z,989.63
2019-03-09T04:52:58.223Z,989.65
2019-03-09T04:53:58.242Z,989.7
2019-03-09T04:54:58.261Z,989.67
2019-03-09T04:55:58.282Z,989.69
2019-03-09T04:56:58.299Z,989.76
2019-03-09T04:57:58.317Z,989.72
2019-03-09T04:58:58.338Z,989.77
2019-03-09T04:59:58.358Z,989.77
2019-03-09T05:00:58.374Z,989.8
2019-03-09T05:01:58.394Z,989.81
2019-03-09T05:02:58.413Z,989.82
2019-03-09T05:03:58.431Z,989.83
2019-03-09T05:04:58.949Z,989.81
2019-03-09T05:05:58.470Z,989.81
2019-03-09T05:06:58.489Z,989.81
2019-03-09T05:07:58.508Z,989.83
2019-03-09T05:08:58.535Z,989.8
2019-03-09T05:09:58.546Z,989.79
2019-03-09T05:10:58.565Z,989.79
2019-03-09T05:11:58.582Z,989.87
2019-03-09T05:12:58.603Z,989.84
2019-03-09T05:13:58.622Z,989.85
2019-03-09T05:14:58.643Z,989.86
2019-03-09T05:15:58.659Z,989.92
2019-03-09T05:16:58.677Z,989.92
2019-03-09T05:17:58.697Z,989.91
2019-03-09T05:18:58.716Z,989.98
2019-03-09T05:19:58.734Z,989.95
2019-03-09T05:20:58.755Z,989.95
2019-03-09T05:21:58.773Z,990.01
2019-03-09T05:22:58.797Z,989.96
2019-03-09T05:23:58.814Z,989.99
2019-03-09T05:24:58.829Z,990.05
2019-03-09T05:25:58.854Z,989.99
2019-03-09T05:26:58.868Z,990.04
2019-03-09T05:27:58.886Z,990.05
2019-03-09T05:28:58.908Z,990.12
2019-03-09T05:29:58.927Z,990.1
2019-03-09T05:30:58.943Z,990.13
2019-03-09T05:31:58.962Z,990.03
2019-03-09T05:32:58.982Z,990.15
2019-03-09T05:33:59.001Z,990.02
2019-03-09T05:34:59.020Z,990.19
2019-03-09T05:35:59.039Z,990.06
2019-03-09T05:36:59.058Z,990.23
2019-03-09T05:37:59.076Z,990.05
2019-03-09T05:38:59.095Z,990.2
2019-03-09T05:39:59.114Z,990.11
2019-03-09T05:40:59.132Z,990.23
2019-03-09T05:41:59.152Z,990.33
2019-03-09T05:42:59.171Z,990.35
2019-03-09T05:43:59.190Z,990.39
2019-03-09T05:44:59.208Z,990.42
2019-03-09T05:45:59.227Z,990.43
2019-03-09T05:46:59.248Z,990.45
2019-03-09T05:47:59.266Z,990.52
2019-03-09T05:48:59.283Z,990.46
2019-03-09T05:49:59.302Z,990.55
2019-03-09T05:50:59.322Z,990.49
2019-03-09T05:51:59.341Z,990.52
2019-03-09T05:52:59.360Z,990.51
2019-03-09T05:53:59.379Z,990.51
2019-03-09T05:54:59.398Z,990.6
2019-03-09T05:55:59.418Z,990.57
2019-03-09T05:56:59.435Z,990.61
2019-03-09T05:57:59.457Z,990.56
2019-03-09T05:58:59.473Z,990.47
2019-03-09T05:59:59.493Z,990.51
2019-03-09T06:00:59.513Z,990.56
2019-03-09T06:01:59.532Z,990.6
2019-03-09T06:02:59.550Z,990.66
2019-03-09T06:04:00.316Z,990.76
2019-03-09T06:04:59.588Z,990.81
2019-03-09T06:05:59.608Z,990.75
2019-03-09T06:06:59.625Z,990.82
2019-03-09T06:07:59.647Z,990.8
2019-03-09T06:08:59.664Z,990.83
2019-03-09T06:09:59.682Z,990.86
2019-03-09T06:10:59.702Z,990.81
2019-03-09T06:11:59.721Z,990.84
2019-03-09T06:12:59.740Z,990.86
2019-03-09T06:13:59.758Z,990.9
2019-03-09T06:14:59.778Z,990.95
2019-03-09T06:15:59.797Z,990.97
2019-03-09T06:16:59.815Z,990.95
2019-03-09T06:17:59.832Z,991
2019-03-09T06:18:59.853Z,990.98
2019-03-09T06:19:59.872Z,991.12
2019-03-09T06:20:59.892Z,991.08
2019-03-09T06:21:59.910Z,991.21
2019-03-09T06:22:59.930Z,991.16
2019-03-09T06:23:59.949Z,991.16
2019-03-09T06:24:59.966Z,991.19
2019-03-09T06:25:59.998Z,991.17
2019-03-09T06:27:00.004Z,991.12
2019-03-09T06:28:00.023Z,991.05
2019-03-09T06:29:00.042Z,991.11
2019-03-09T06:30:00.063Z,991.18
2019-03-09T06:31:00.080Z,991.28
2019-03-09T06:32:00.098Z,991.26
2019-03-09T06:33:00.119Z,991.26
2019-03-09T06:34:00.135Z,991.23
2019-03-09T06:35:00.318Z,991.27
2019-03-09T06:36:00.172Z,991.31
2019-03-09T06:37:00.201Z,991.28
2019-03-09T06:38:00.213Z,991.32
2019-03-09T06:39:00.231Z,991.35
2019-03-09T06:40:00.375Z,991.4
2019-03-09T06:41:03.033Z,991.38
2019-03-09T06:42:00.287Z,991.44
2019-03-09T06:43:00.304Z,991.44
2019-03-09T06:44:00.334Z,991.42
2019-03-09T06:45:00.383Z,991.49
2019-03-09T06:46:00.362Z,991.47
2019-03-09T06:47:00.379Z,991.48
2019-03-09T06:48:00.398Z,991.53
2019-03-09T06:49:00.417Z,991.54
2019-03-09T06:50:00.436Z,991.58
2019-03-09T06:51:00.455Z,991.62
2019-03-09T06:52:00.473Z,991.62
2019-03-09T06:53:00.494Z,991.6
2019-03-09T06:54:00.514Z,991.58
2019-03-09T06:55:00.530Z,991.58
2019-03-09T06:56:00.550Z,991.53
2019-03-09T06:57:00.568Z,991.47
2019-03-09T06:58:00.632Z,991.52
2019-03-09T06:59:00.623Z,991.44
2019-03-09T07:00:00.628Z,991.44
2019-03-09T07:01:00.644Z,991.49
2019-03-09T07:02:00.663Z,991.48
2019-03-09T07:03:00.681Z,991.53
2019-03-09T07:04:00.700Z,991.51
2019-03-09T07:05:00.719Z,991.54
2019-03-09T07:06:00.739Z,991.58
2019-03-09T07:07:00.756Z,991.58
2019-03-09T07:08:00.776Z,991.63
2019-03-09T07:09:00.795Z,991.65
2019-03-09T07:10:00.814Z,991.71
2019-03-09T07:11:00.834Z,991.74
2019-03-09T07:12:00.852Z,991.74
2019-03-09T07:13:00.871Z,991.79
2019-03-09T07:14:00.889Z,991.83
2019-03-09T07:15:00.908Z,991.87
2019-03-09T07:16:00.926Z,991.87
2019-03-09T07:17:00.946Z,991.88
2019-03-09T07:18:00.968Z,991.92
2019-03-09T07:19:00.985Z,991.91
2019-03-09T07:20:01.003Z,991.95
2019-03-09T07:21:01.022Z,992.03
2019-03-09T07:22:01.041Z,992.04
2019-03-09T07:23:01.060Z,992.08
2019-03-09T07:24:01.079Z,992.1
2019-03-09T07:25:01.097Z,992.16
2019-03-09T07:26:01.116Z,992.16
2019-03-09T07:27:01.134Z,992.1
2019-03-09T07:28:01.153Z,992.08
2019-03-09T07:29:01.173Z,992.09
2019-03-09T07:30:01.192Z,992.1
2019-03-09T07:31:01.210Z,992.11
2019-03-09T07:32:01.231Z,992.04
2019-03-09T07:33:01.249Z,992.05
2019-03-09T07:34:01.268Z,992.1
2019-03-09T07:35:01.288Z,992.06
2019-03-09T07:36:01.306Z,992.11
2019-03-09T07:37:01.347Z,992.1
2019-03-09T07:38:01.344Z,992.19
2019-03-09T07:39:01.363Z,992.16
2019-03-09T07:40:01.392Z,992.12
2019-03-09T07:41:01.403Z,992.17
2019-03-09T07:42:01.421Z,992.11
2019-03-09T07:43:01.446Z,992.17
2019-03-09T07:44:01.459Z,992.17
2019-03-09T07:45:01.479Z,992.23
2019-03-09T07:46:01.498Z,992.24
2019-03-09T07:47:01.516Z,992.2
2019-03-09T07:48:01.542Z,992.25
2019-03-09T07:49:01.556Z,992.34
2019-03-09T07:50:01.575Z,992.26
2019-03-09T07:51:01.593Z,992.3
2019-03-09T07:52:01.612Z,992.24
2019-03-09T07:53:01.632Z,992.2
2019-03-09T07:54:01.650Z,992.28
2019-03-09T07:55:01.669Z,992.23
2019-03-09T07:56:01.687Z,992.24
2019-03-09T07:57:01.709Z,992.2
2019-03-09T07:58:01.727Z,992.2
2019-03-09T07:59:01.748Z,992.11
2019-03-09T08:00:01.767Z,992.22
2019-03-09T08:01:01.786Z,992.23
2019-03-09T08:02:01.804Z,992.23
2019-03-09T08:03:01.825Z,992.26
2019-03-09T08:04:01.884Z,992.27
2019-03-09T08:05:01.862Z,992.3
2019-03-09T08:06:01.881Z,992.33
2019-03-09T08:07:01.900Z,992.31
2019-03-09T08:08:01.922Z,992.22
2019-03-09T08:09:01.939Z,992.35
2019-03-09T08:10:01.959Z,992.38
2019-03-09T08:11:01.979Z,992.35
2019-03-09T08:12:01.996Z,992.39
2019-03-09T08:13:02.017Z,992.36
2019-03-09T08:14:02.039Z,992.33
2019-03-09T08:15:02.057Z,992.4
2019-03-09T08:16:02.075Z,992.48
2019-03-09T08:17:02.097Z,992.48
2019-03-09T08:18:02.111Z,992.38
2019-03-09T08:19:02.132Z,992.42
2019-03-09T08:20:02.159Z,992.4
2019-03-09T08:21:02.171Z,992.37
2019-03-09T08:22:02.195Z,992.43
2019-03-09T08:23:02.209Z,992.47
2019-03-09T08:24:02.237Z,992.44
2019-03-09T08:25:02.250Z,992.46
2019-03-09T08:26:02.277Z,992.48
2019-03-09T08:27:02.302Z,992.49
2019-03-09T08:28:02.307Z,992.53
2019-03-09T08:29:02.326Z,992.5
2019-03-09T08:30:02.697Z,992.49
2019-03-09T08:31:02.366Z,992.47
2019-03-09T08:32:02.386Z,992.54
2019-03-09T08:33:02.417Z,992.56
2019-03-09T08:34:02.435Z,992.51
2019-03-09T08:35:02.447Z,992.53
2019-03-09T08:36:02.481Z,992.5
2019-03-09T08:37:02.482Z,992.54
2019-03-09T08:38:02.502Z,992.62
2019-03-09T08:39:02.549Z,992.59
2019-03-09T08:40:02.552Z,992.63
2019-03-09T08:41:02.565Z,992.61
2019-03-09T08:42:02.597Z,992.67
2019-03-09T08:43:02.600Z,992.76
2019-03-09T08:44:02.676Z,992.64
2019-03-09T08:45:02.646Z,992.64
2019-03-09T08:46:02.660Z,992.48
2019-03-09T08:47:02.680Z,992.56
2019-03-09T08:48:02.725Z,992.65
2019-03-09T08:49:02.737Z,992.61
2019-03-09T08:50:02.741Z,992.6
2019-03-09T08:51:02.803Z,992.7
2019-03-09T08:52:02.811Z,992.66
2019-03-09T08:53:02.798Z,992.71
2019-03-09T08:54:02.899Z,992.75
2019-03-09T08:55:02.840Z,992.74
2019-03-09T08:56:02.856Z,992.77
2019-03-09T08:57:02.895Z,992.8
2019-03-09T08:58:02.904Z,992.83
2019-03-09T08:59:02.948Z,992.91
2019-03-09T09:00:02.985Z,992.83
2019-03-09T09:01:02.954Z,992.78
2019-03-09T09:02:02.978Z,992.7
2019-03-09T09:03:02.994Z,992.7
2019-03-09T09:04:03.014Z,992.72
2019-03-09T09:05:03.032Z,992.71
2019-03-09T09:06:03.052Z,992.68
2019-03-09T09:07:03.084Z,992.73
2019-03-09T09:08:03.937Z,992.75
2019-03-09T09:09:03.111Z,992.75
2019-03-09T09:10:03.146Z,992.76
2019-03-09T09:11:03.153Z,992.67
2019-03-09T09:12:03.172Z,992.65
2019-03-09T09:13:03.222Z,992.63
2019-03-09T09:14:03.210Z,992.62
2019-03-09T09:15:03.231Z,992.67
2019-03-09T09:16:03.251Z,992.7
2019-03-09T09:17:03.270Z,992.65
2019-03-09T09:18:03.290Z,992.66
2019-03-09T09:19:03.309Z,992.64
2019-03-09T09:20:03.328Z,992.71
2019-03-09T09:21:03.348Z,992.58
2019-03-09T09:22:03.367Z,992.78
2019-03-09T09:23:03.388Z,992.61
2019-03-09T09:24:03.409Z,992.6
2019-03-09T09:25:03.429Z,992.62
2019-03-09T09:26:03.448Z,992.58
2019-03-09T09:27:03.466Z,992.57
2019-03-09T09:28:03.486Z,992.5
2019-03-09T09:29:03.509Z,992.46
2019-03-09T09:30:03.524Z,992.35
2019-03-09T09:31:03.587Z,992.37
2019-03-09T09:32:03.564Z,992.41
2019-03-09T09:33:03.584Z,992.38
2019-03-09T09:34:03.604Z,992.53
2019-03-09T09:35:03.628Z,992.48
2019-03-09T09:36:03.642Z,992.36
2019-03-09T09:37:03.668Z,992.38
2019-03-09T09:38:03.685Z,992.36
2019-03-09T09:39:03.703Z,992.36
2019-03-09T09:40:03.724Z,992.39
2019-03-09T09:41:03.741Z,992.42
2019-03-09T09:42:03.761Z,992.5
2019-03-09T09:43:03.780Z,992.51
2019-03-09T09:44:03.800Z,992.48
2019-03-09T09:45:03.821Z,992.47
2019-03-09T09:46:03.840Z,992.54
2019-03-09T09:47:03.860Z,992.54
2019-03-09T09:48:03.880Z,992.59
2019-03-09T09:49:03.900Z,992.52
2019-03-09T09:50:03.922Z,992.52
2019-03-09T09:51:03.940Z,992.47
2019-03-09T09:52:03.958Z,992.5
2019-03-09T09:53:03.979Z,992.45
2019-03-09T09:54:03.999Z,992.59
2019-03-09T09:55:04.019Z,992.45
2019-03-09T09:56:04.039Z,992.47
2019-03-09T09:57:04.058Z,992.57
2019-03-09T09:58:04.079Z,992.51
2019-03-09T09:59:04.098Z,992.46
2019-03-09T10:00:04.118Z,992.47
2019-03-09T10:01:04.137Z,992.46
2019-03-09T10:02:04.157Z,992.46
2019-03-09T10:03:04.179Z,992.43
2019-03-09T10:04:04.999Z,992.27
2019-03-09T10:05:04.218Z,992.34
2019-03-09T10:06:05.901Z,992.27
2019-03-09T10:07:04.257Z,992.27
2019-03-09T10:08:04.276Z,992.34
2019-03-09T10:09:04.296Z,992.26
2019-03-09T10:10:04.317Z,992.2
2019-03-09T10:11:04.336Z,992.25
2019-03-09T10:12:04.355Z,992.26
2019-03-09T10:13:04.380Z,992.23
2019-03-09T10:14:04.396Z,992.26
2019-03-09T10:15:04.415Z,992.22
2019-03-09T10:16:04.436Z,992.17
2019-03-09T10:17:04.454Z,992.28
2019-03-09T10:18:04.475Z,992.07
2019-03-09T10:19:04.494Z,992.21
2019-03-09T10:20:04.516Z,992.23
2019-03-09T10:21:04.536Z,992.18
2019-03-09T10:22:04.554Z,992.16
2019-03-09T10:23:05.132Z,992.1
2019-03-09T10:24:04.594Z,992.17
2019-03-09T10:25:04.616Z,992.21
2019-03-09T10:26:04.634Z,992.2
2019-03-09T10:27:04.654Z,992.21
2019-03-09T10:28:04.673Z,992.24
2019-03-09T10:29:04.693Z,992.29
2019-03-09T10:30:04.714Z,992.31
2019-03-09T10:31:04.733Z,992.22
2019-03-09T10:32:04.753Z,992.2
2019-03-09T10:33:04.777Z,992.19
2019-03-09T10:34:04.794Z,992.23
2019-03-09T10:35:04.813Z,992.23
2019-03-09T10:36:04.833Z,992.41
2019-03-09T10:37:04.852Z,992.15
2019-03-09T10:38:04.873Z,992.24
2019-03-09T10:39:04.894Z,992.31
2019-03-09T10:40:04.913Z,992.28
2019-03-09T10:41:04.933Z,992.34
2019-03-09T10:42:04.953Z,992.3
2019-03-09T10:43:04.973Z,992.33
2019-03-09T10:44:04.995Z,992.21
2019-03-09T10:45:05.019Z,992.3
2019-03-09T10:46:05.033Z,992.19
2019-03-09T10:47:05.053Z,992.26
2019-03-09T10:48:05.073Z,992.25
2019-03-09T10:49:05.093Z,992.15
2019-03-09T10:50:05.112Z,992.17
2019-03-09T10:51:05.134Z,992.2
2019-03-09T10:52:05.152Z,992.32
2019-03-09T10:53:05.172Z,992.39
2019-03-09T10:54:05.196Z,992.3
2019-03-09T10:55:05.214Z,992.23
2019-03-09T10:56:05.233Z,992.31
2019-03-09T10:57:05.255Z,992.34
2019-03-09T10:58:05.276Z,992.36
2019-03-09T10:59:05.292Z,992.24
2019-03-09T11:00:05.313Z,992.27
2019-03-09T11:01:05.332Z,992.18
2019-03-09T11:02:05.353Z,992.1
2019-03-09T11:03:05.375Z,992.08
2019-03-09T11:04:05.391Z,992.14
2019-03-09T11:05:05.436Z,992.07
2019-03-09T11:06:05.432Z,992.15
2019-03-09T11:07:05.451Z,992.22
2019-03-09T11:08:05.473Z,992.35
2019-03-09T11:09:05.493Z,992.18
2019-03-09T11:10:05.510Z,992.14
2019-03-09T11:11:05.531Z,992.16
2019-03-09T11:12:05.551Z,992.14
2019-03-09T11:13:05.571Z,992.06
2019-03-09T11:14:05.591Z,991.99
2019-03-09T11:15:05.610Z,992.07
2019-03-09T11:16:05.632Z,992.01
2019-03-09T11:17:05.650Z,991.95
2019-03-09T11:18:05.671Z,991.98
2019-03-09T11:19:05.692Z,992
2019-03-09T11:20:05.711Z,992.06
2019-03-09T11:21:05.732Z,992.06
2019-03-09T11:22:05.751Z,992.05
2019-03-09T11:23:05.772Z,992
2019-03-09T11:24:05.793Z,992.08
2019-03-09T11:25:05.811Z,992.02
2019-03-09T11:26:05.832Z,992.02
2019-03-09T11:27:05.854Z,991.98
2019-03-09T11:28:05.872Z,992.02
2019-03-09T11:29:05.893Z,992.05
2019-03-09T11:30:05.917Z,992.02
2019-03-09T11:31:05.932Z,992.05
2019-03-09T11:32:05.952Z,992
2019-03-09T11:33:05.972Z,991.97
2019-03-09T11:34:05.993Z,991.93
2019-03-09T11:35:06.015Z,991.88
2019-03-09T11:36:06.043Z,991.89
2019-03-09T11:37:06.052Z,991.91
2019-03-09T11:38:06.073Z,991.8
2019-03-09T11:39:06.147Z,991.77
2019-03-09T11:40:06.114Z,991.74
2019-03-09T11:41:06.132Z,991.61
2019-03-09T11:42:06.156Z,991.64
2019-03-09T11:43:06.173Z,991.71
2019-03-09T11:44:06.195Z,991.71
2019-03-09T11:45:06.214Z,991.64
2019-03-09T11:46:06.235Z,991.59
2019-03-09T11:47:06.256Z,991.71
2019-03-09T11:48:06.276Z,991.54
2019-03-09T11:49:06.296Z,991.55
2019-03-09T11:50:06.315Z,991.46
2019-03-09T11:51:06.335Z,991.47
2019-03-09T11:52:06.355Z,991.41
2019-03-09T11:53:06.376Z,991.49
2019-03-09T11:54:06.395Z,991.57
2019-03-09T11:55:06.416Z,991.52
2019-03-09T11:56:06.436Z,991.55
2019-03-09T11:57:06.457Z,991.46
2019-03-09T11:58:06.477Z,991.47
2019-03-09T11:59:06.498Z,991.5
2019-03-09T12:00:06.518Z,991.38
2019-03-09T12:01:06.537Z,991.35
2019-03-09T12:02:06.559Z,991.33
2019-03-09T12:03:06.578Z,991.29
2019-03-09T12:04:06.600Z,991.2
2019-03-09T12:05:06.617Z,991.12
2019-03-09T12:06:06.640Z,991.09
2019-03-09T12:07:06.657Z,990.96
2019-03-09T12:08:06.679Z,990.98
2019-03-09T12:09:06.698Z,990.99
2019-03-09T12:10:06.719Z,991.04
2019-03-09T12:11:06.740Z,991.04
2019-03-09T12:12:06.760Z,990.99
2019-03-09T12:13:06.780Z,990.96
2019-03-09T12:14:06.800Z,990.95
2019-03-09T12:15:06.820Z,990.94
2019-03-09T12:16:06.841Z,990.81
2019-03-09T12:17:12.253Z,990.69
2019-03-09T12:18:06.881Z,990.71
2019-03-09T12:19:06.902Z,990.77
2019-03-09T12:20:06.923Z,990.7
2019-03-09T12:21:06.943Z,990.77
2019-03-09T12:22:06.962Z,990.67
2019-03-09T12:23:06.984Z,990.69
2019-03-09T12:24:15.998Z,990.58
2019-03-09T12:25:07.028Z,990.54
2019-03-09T12:26:07.047Z,990.57
2019-03-09T12:27:07.064Z,990.62
2019-03-09T12:28:07.086Z,990.58
2019-03-09T12:29:07.108Z,990.59
2019-03-09T12:30:07.175Z,990.56
2019-03-09T12:31:07.155Z,990.53
2019-03-09T12:32:07.166Z,990.44